createdAt,value
2023-04-08T00:00:39.956Z,96492.09
2023-04-08T00:03:12.780Z,96492.91
2023-04-08T00:05:47.154Z,96490.53
2023-04-08T00:08:19.955Z,96502.31
2023-04-08T00:10:52.579Z,96495.41
2023-04-08T00:13:25.499Z,96502.19
2023-04-08T00:15:59.424Z,96491.03
2023-04-08T00:18:32.193Z,96498.56
2023-04-08T00:21:06.317Z,96493.22
2023-04-08T00:23:39.053Z,96496.22
2023-04-08T00:26:11.955Z,96490.88
2023-04-08T00:28:45.189Z,96496.22
2023-04-08T00:31:17.911Z,96494.31
2023-04-08T00:33:50.646Z,96490.38
2023-04-08T00:36:24.727Z,96494.63
2023-04-08T00:38:57.584Z,96493.84
2023-04-08T00:41:30.456Z,96501.84
2023-04-08T00:44:03.419Z,96490.38
2023-04-08T00:46:37.593Z,96494.19
2023-04-08T00:49:10.812Z,96488.84
2023-04-08T00:51:44.878Z,96496.84
2023-04-08T00:54:17.720Z,96499.06
2023-04-08T00:56:50.490Z,96494.03
2023-04-08T00:59:23.148Z,96489.78
2023-04-08T01:01:58.762Z,96485.06
2023-04-08T01:04:34.795Z,96484.63
2023-04-08T01:07:12.954Z,96486.81
2023-04-08T01:09:47.473Z,96487.75
2023-04-08T01:12:23.522Z,96478.34
2023-04-08T01:14:58.598Z,96481.50
2023-04-08T01:17:32.565Z,96478.19
2023-04-08T01:20:06.163Z,96482.41
2023-04-08T01:22:45.200Z,96482.41
2023-04-08T01:25:20.032Z,96484.28
2023-04-08T01:27:56.479Z,96484.59
2023-04-08T01:30:30.528Z,96476.59
2023-04-08T01:33:03.819Z,96484.88
2023-04-08T01:35:36.948Z,96480.78
2023-04-08T01:38:11.030Z,96479.66
2023-04-08T01:40:44.464Z,96477.94
2023-04-08T01:43:19.080Z,96480.44
2023-04-08T01:45:54.620Z,96486.06
2023-04-08T01:48:28.192Z,96485.31
2023-04-08T01:51:01.309Z,96479.19
2023-04-08T01:53:34.096Z,96486.84
2023-04-08T01:56:08.198Z,96488.13
2023-04-08T01:58:43.267Z,96490.50
2023-04-08T02:01:17.659Z,96483.44
2023-04-08T02:03:52.632Z,96492.38
2023-04-08T02:06:28.252Z,96486.91
2023-04-08T02:09:01.491Z,96483.31
2023-04-08T02:11:34.202Z,96486.13
2023-04-08T02:14:08.534Z,96477.81
2023-04-08T02:16:44.166Z,96491.81
2023-04-08T02:19:19.658Z,96490.06
2023-04-08T02:21:56.472Z,96490.56
2023-04-08T02:24:30.641Z,96488.81
2023-04-08T02:27:05.093Z,96490.88
2023-04-08T02:29:41.569Z,96493.41
2023-04-08T02:32:15.158Z,96486.94
2023-04-08T02:34:48.804Z,96488.22
2023-04-08T02:37:21.614Z,96485.22
2023-04-08T02:39:54.301Z,96489.16
2023-04-08T02:42:27.453Z,96486.63
2023-04-08T02:45:01.576Z,96496.53
2023-04-08T02:47:34.355Z,96494.03
2023-04-08T02:50:07.436Z,96494.81
2023-04-08T02:52:40.452Z,96493.41
2023-04-08T02:55:13.088Z,96499.19
2023-04-08T02:57:45.774Z,96493.53
2023-04-08T03:00:19.919Z,96495.91
2023-04-08T03:02:53.085Z,96494.34
2023-04-08T03:05:27.284Z,96490.28
2023-04-08T03:08:00.078Z,96492.97
2023-04-08T03:10:32.731Z,96487.63
2023-04-08T03:13:05.401Z,96489.19
2023-04-08T03:15:39.548Z,96492.31
2023-04-08T03:18:12.235Z,96494.97
2023-04-08T03:20:44.874Z,96490.78
2023-04-08T03:23:17.585Z,96483.53
2023-04-08T03:25:50.199Z,96495.47
2023-04-08T03:28:22.871Z,96490.91
2023-04-08T03:30:56.981Z,96496.72
2023-04-08T03:33:29.657Z,96493.75
2023-04-08T03:36:02.299Z,96497.19
2023-04-08T03:38:35.420Z,96496.41
2023-04-08T03:41:08.145Z,96504.88
2023-04-08T03:43:40.858Z,96503.31
2023-04-08T03:46:14.906Z,96506.78
2023-04-08T03:48:47.979Z,96508.78
2023-04-08T03:51:20.804Z,96508.00
2023-04-08T03:53:53.477Z,96513.81
2023-04-08T03:56:26.431Z,96510.84
2023-04-08T03:58:59.098Z,96507.69
2023-04-08T04:01:33.179Z,96509.28
2023-04-08T04:04:06.107Z,96506.59
2023-04-08T04:06:38.919Z,96500.47
2023-04-08T04:09:11.604Z,96501.56
2023-04-08T04:11:44.326Z,96497.03
2023-04-08T04:14:17.133Z,96492.78
2023-04-08T04:16:51.222Z,96502.34
2023-04-08T04:19:23.899Z,96499.22
2023-04-08T04:21:56.674Z,96503.47
2023-04-08T04:24:29.483Z,96503.16
2023-04-08T04:27:02.062Z,96494.34
2023-04-08T04:29:34.695Z,96496.72
2023-04-08T04:32:08.817Z,96509.75
2023-04-08T04:34:42.084Z,96502.84
2023-04-08T04:37:14.935Z,96500.16
2023-04-08T04:39:47.659Z,96506.28
2023-04-08T04:42:20.416Z,96501.75
2023-04-08T04:44:54.152Z,96511.94
2023-04-08T04:47:28.268Z,96518.84
2023-04-08T04:50:01.409Z,96515.88
2023-04-08T04:52:34.026Z,96517.75
2023-04-08T04:55:07.274Z,96524.97
2023-04-08T04:57:39.954Z,96523.09
2023-04-08T05:00:13.043Z,96528.44
2023-04-08T05:02:47.469Z,96527.34
2023-04-08T05:05:20.612Z,96525.75
2023-04-08T05:07:53.875Z,96534.25
2023-04-08T05:10:26.661Z,96532.66
2023-04-08T05:12:59.261Z,96531.56
2023-04-08T05:15:31.997Z,96540.34
2023-04-08T05:18:06.185Z,96545.38
2023-04-08T05:20:38.998Z,96542.69
2023-04-08T05:23:11.709Z,96542.69
2023-04-08T05:25:44.429Z,96549.00
2023-04-08T05:28:17.068Z,96557.00
2023-04-08T05:30:50.578Z,96558.56
2023-04-08T05:33:26.531Z,96556.03
2023-04-08T05:35:59.288Z,96549.59
2023-04-08T05:38:32.043Z,96555.59
2023-04-08T05:41:04.732Z,96559.50
2023-04-08T05:43:37.420Z,96565.63
2023-04-08T05:46:10.682Z,96565.78
2023-04-08T05:48:44.787Z,96566.72
2023-04-08T05:51:17.954Z,96567.66
2023-04-08T05:53:50.828Z,96565.47
2023-04-08T05:56:23.481Z,96569.38
2023-04-08T05:58:56.164Z,96563.41
2023-04-08T06:01:28.955Z,96563.56
2023-04-08T06:04:03.212Z,96573.28
2023-04-08T06:06:36.194Z,96575.78
2023-04-08T06:09:09.984Z,96572.97
2023-04-08T06:11:43.033Z,96572.47
2023-04-08T06:14:15.755Z,96571.97
2023-04-08T06:16:48.851Z,96573.06
2023-04-08T06:19:23.177Z,96576.50
2023-04-08T06:21:59.071Z,96580.25
2023-04-08T06:24:31.809Z,96579.91
2023-04-08T06:27:04.705Z,96583.00
2023-04-08T06:29:37.330Z,96578.56
2023-04-08T06:32:10.071Z,96576.31
2023-04-08T06:34:45.981Z,96573.41
2023-04-08T06:37:19.104Z,96582.78
2023-04-08T06:39:51.852Z,96580.97
2023-04-08T06:42:27.371Z,96573.00
2023-04-08T06:45:00.456Z,96579.53
2023-04-08T06:47:33.146Z,96574.59
2023-04-08T06:50:08.174Z,96583.66
2023-04-08T06:52:41.219Z,96578.53
2023-04-08T06:55:13.908Z,96578.00
2023-04-08T06:57:46.622Z,96580.50
2023-04-08T07:00:19.347Z,96588.97
2023-04-08T07:02:52.208Z,96585.50
2023-04-08T07:05:26.568Z,96587.44
2023-04-08T07:07:59.184Z,96581.41
2023-04-08T07:10:31.847Z,96583.75
2023-04-08T07:13:04.913Z,96585.78
2023-04-08T07:15:37.737Z,96581.78
2023-04-08T07:18:10.725Z,96581.56
2023-04-08T07:20:44.848Z,96577.56
2023-04-08T07:23:17.542Z,96585.53
2023-04-08T07:25:50.202Z,96587.38
2023-04-08T07:28:22.890Z,96591.53
2023-04-08T07:30:56.026Z,96589.63
2023-04-08T07:33:28.811Z,96590.44
2023-04-08T07:36:03.140Z,96589.31
2023-04-08T07:38:36.053Z,96595.94
2023-04-08T07:41:08.898Z,96591.81
2023-04-08T07:43:41.700Z,96590.66
2023-04-08T07:46:14.410Z,96591.78
2023-04-08T07:48:47.330Z,96594.78
2023-04-08T07:51:21.627Z,96595.88
2023-04-08T07:53:54.424Z,96598.88
2023-04-08T07:56:27.263Z,96605.69
2023-04-08T07:59:00.613Z,96607.47
2023-04-08T08:01:35.046Z,96610.13
2023-04-08T08:04:07.992Z,96607.97
2023-04-08T08:06:42.368Z,96605.13
2023-04-08T08:09:15.053Z,96612.25
2023-04-08T08:11:48.140Z,96617.47
2023-04-08T08:14:21.843Z,96615.44
2023-04-08T08:16:54.819Z,96617.63
2023-04-08T08:19:27.497Z,96617.00
2023-04-08T08:22:01.542Z,96617.19
2023-04-08T08:24:34.231Z,96615.06
2023-04-08T08:27:06.908Z,96620.97
2023-04-08T08:29:39.528Z,96623.06
2023-04-08T08:32:12.511Z,96629.75
2023-04-08T08:34:45.343Z,96622.97
2023-04-08T08:37:19.407Z,96627.69
2023-04-08T08:39:52.087Z,96620.47
2023-04-08T08:42:25.288Z,96629.41
2023-04-08T08:44:58.377Z,96629.47
2023-04-08T08:47:31.838Z,96628.47
2023-04-08T08:50:05.248Z,96634.34
2023-04-08T08:52:39.372Z,96626.78
2023-04-08T08:55:32.573Z,96621.56
2023-04-08T08:58:05.834Z,96626.41
2023-04-08T09:00:39.414Z,96633.16
2023-04-08T09:03:21.840Z,96627.59
2023-04-08T09:05:55.688Z,96632.88
2023-04-08T09:08:30.680Z,96635.38
2023-04-08T09:11:13.629Z,96632.50
2023-04-08T09:13:46.967Z,96631.06
2023-04-08T09:16:20.608Z,96637.75
2023-04-08T09:18:53.419Z,96635.91
2023-04-08T09:21:27.628Z,96630.59
2023-04-08T09:24:01.634Z,96629.16
2023-04-08T09:26:34.352Z,96629.25
2023-04-08T09:29:24.102Z,96629.72
2023-04-08T09:31:59.179Z,96633.69
2023-04-08T09:34:34.165Z,96629.56
2023-04-08T09:37:07.318Z,96628.50
2023-04-08T09:39:41.506Z,96623.94
2023-04-08T09:42:14.709Z,96625.94
2023-04-08T09:44:47.867Z,96620.53
2023-04-08T09:47:22.098Z,96624.31
2023-04-08T09:49:57.496Z,96626.50
2023-04-08T09:52:31.839Z,96625.16
2023-04-08T09:55:07.125Z,96629.25
2023-04-08T09:57:42.620Z,96622.41
2023-04-08T10:00:16.132Z,96631.94
2023-04-08T10:02:52.914Z,96626.03
2023-04-08T10:05:26.394Z,96625.25
2023-04-08T10:07:59.375Z,96633.41
2023-04-08T10:10:34.082Z,96627.03
2023-04-08T10:13:07.937Z,96620.00
2023-04-08T10:15:43.219Z,96622.25
2023-04-08T10:18:32.263Z,96624.56
2023-04-08T10:21:05.290Z,96622.69
2023-04-08T10:23:54.899Z,96621.16
2023-04-08T10:26:35.923Z,96619.50
2023-04-08T10:29:27.386Z,96614.38
2023-04-08T10:32:00.301Z,96619.63
2023-04-08T10:34:33.122Z,96610.56
2023-04-08T10:37:06.597Z,96617.34
2023-04-08T10:39:40.101Z,96614.41
2023-04-08T10:42:14.125Z,96609.91
2023-04-08T10:44:47.900Z,96613.09
2023-04-08T10:47:26.458Z,96617.44
2023-04-08T10:49:59.408Z,96614.81
2023-04-08T10:52:32.770Z,96618.72
2023-04-08T10:55:06.597Z,96611.78
2023-04-08T10:57:40.903Z,96610.25
2023-04-08T11:00:19.388Z,96619.09
2023-04-08T11:02:52.151Z,96617.09
2023-04-08T11:05:25.087Z,96615.44
2023-04-08T11:07:57.822Z,96613.34
2023-04-08T11:10:30.676Z,96608.13
2023-04-08T11:13:07.455Z,96611.00
2023-04-08T11:15:40.202Z,96611.16
2023-04-08T11:18:13.395Z,96608.56
2023-04-08T11:20:46.116Z,96607.16
2023-04-08T11:23:18.921Z,96617.66
2023-04-08T11:25:52.002Z,96606.22
2023-04-08T11:28:26.219Z,96610.53
2023-04-08T11:30:59.681Z,96616.13
2023-04-08T11:33:32.465Z,96612.81
2023-04-08T11:36:05.700Z,96609.94
2023-04-08T11:38:40.114Z,96615.16
2023-04-08T11:41:12.932Z,96609.28
2023-04-08T11:43:57.229Z,96609.19
2023-04-08T11:46:29.955Z,96605.38
2023-04-08T11:49:03.486Z,96604.66
2023-04-08T11:51:37.956Z,96604.81
2023-04-08T11:54:27.069Z,96606.50
2023-04-08T11:57:00.018Z,96599.81
2023-04-08T11:59:34.191Z,96607.06
2023-04-08T12:02:07.035Z,96600.81
2023-04-08T12:04:39.897Z,96594.13
2023-04-08T12:07:13.622Z,96603.31
2023-04-08T12:09:46.301Z,96601.59
2023-04-08T12:12:18.947Z,96603.69
2023-04-08T12:14:53.235Z,96605.38
2023-04-08T12:17:26.221Z,96596.09
2023-04-08T12:19:58.884Z,96609.59
2023-04-08T12:22:31.541Z,96610.56
2023-04-08T12:25:04.356Z,96609.94
2023-04-08T12:27:37.217Z,96611.59
2023-04-08T12:30:13.177Z,96606.63
2023-04-08T12:32:48.053Z,96606.66
2023-04-08T12:35:21.248Z,96598.53
2023-04-08T12:37:54.198Z,96601.19
2023-04-08T12:40:26.872Z,96602.72
2023-04-08T12:42:59.648Z,96604.59
2023-04-08T12:45:33.693Z,96606.81
2023-04-08T12:48:06.733Z,96594.50
2023-04-08T12:50:39.784Z,96606.53
2023-04-08T12:53:12.557Z,96606.72
2023-04-08T12:55:47.494Z,96609.66
2023-04-08T12:58:22.597Z,96612.38
2023-04-08T13:00:56.749Z,96616.63
2023-04-08T13:03:31.975Z,96612.91
2023-04-08T13:06:04.856Z,96606.09
2023-04-08T13:08:37.601Z,96605.81
2023-04-08T13:11:10.650Z,96605.22
2023-04-08T13:13:44.025Z,96603.38
2023-04-08T13:16:18.675Z,96598.41
2023-04-08T13:18:52.640Z,96602.69
2023-04-08T13:21:25.894Z,96601.19
2023-04-08T13:23:58.636Z,96597.78
2023-04-08T13:26:31.347Z,96599.78
2023-04-08T13:29:04.432Z,96594.06
2023-04-08T13:31:39.080Z,96591.06
2023-04-08T13:34:11.762Z,96586.56
2023-04-08T13:36:44.484Z,96591.31
2023-04-08T13:39:17.442Z,96589.13
2023-04-08T13:41:50.244Z,96584.22
2023-04-08T13:44:23.553Z,96591.69
2023-04-08T13:46:58.146Z,96593.66
2023-04-08T13:49:31.866Z,96599.94
2023-04-08T13:52:04.837Z,96595.66
2023-04-08T13:54:37.573Z,96598.72
2023-04-08T13:57:10.516Z,96598.66
2023-04-08T13:59:44.558Z,96601.97
2023-04-08T14:02:19.235Z,96597.22
2023-04-08T14:04:52.449Z,96597.81
2023-04-08T14:07:25.298Z,96594.63
2023-04-08T14:09:58.000Z,96600.63
2023-04-08T14:12:30.796Z,96590.56
2023-04-08T14:15:03.891Z,96588.50
2023-04-08T14:17:38.033Z,96588.44
2023-04-08T14:20:11.002Z,96589.91
2023-04-08T14:22:43.593Z,96596.41
2023-04-08T14:25:16.504Z,96603.72
2023-04-08T14:27:58.063Z,96596.72
2023-04-08T14:30:31.993Z,96593.06
2023-04-08T14:33:06.413Z,96602.19
2023-04-08T14:35:39.224Z,96600.91
2023-04-08T14:38:12.366Z,96607.25
2023-04-08T14:40:45.121Z,96611.69
2023-04-08T14:43:17.724Z,96608.84
2023-04-08T14:45:51.122Z,96605.94
2023-04-08T14:48:26.431Z,96613.50
2023-04-08T14:51:00.102Z,96606.41
2023-04-08T14:53:33.475Z,96606.66
2023-04-08T14:56:06.420Z,96613.81
2023-04-08T14:58:39.369Z,96614.09
2023-04-08T15:01:12.762Z,96611.28
2023-04-08T15:03:47.469Z,96611.56
2023-04-08T15:06:21.949Z,96617.63
2023-04-08T15:08:54.635Z,96614.81
2023-04-08T15:11:27.410Z,96624.38
2023-04-08T15:14:00.178Z,96628.53
2023-04-08T15:16:33.020Z,96624.28
2023-04-08T15:19:07.219Z,96623.41
2023-04-08T15:21:39.985Z,96628.69
2023-04-08T15:24:12.831Z,96625.56
2023-04-08T15:26:45.612Z,96634.31
2023-04-08T15:29:18.227Z,96632.75
2023-04-08T15:31:50.918Z,96629.97
2023-04-08T15:34:25.027Z,96631.41
2023-04-08T15:36:58.487Z,96631.41
2023-04-08T15:39:31.450Z,96628.31
2023-04-08T15:42:05.356Z,96625.19
2023-04-08T15:44:38.009Z,96627.88
2023-04-08T15:47:10.694Z,96632.78
2023-04-08T15:49:44.847Z,96630.91
2023-04-08T15:52:17.866Z,96633.25
2023-04-08T15:54:50.530Z,96635.94
2023-04-08T15:57:26.758Z,96630.56
2023-04-08T15:59:59.543Z,96635.16
2023-04-08T16:02:32.568Z,96638.97
2023-04-08T16:05:07.470Z,96633.56
2023-04-08T16:07:40.439Z,96636.28
2023-04-08T16:10:13.132Z,96644.00
2023-04-08T16:12:46.318Z,96642.88
2023-04-08T16:15:18.975Z,96644.44
2023-04-08T16:17:52.735Z,96639.06
2023-04-08T16:20:28.720Z,96638.03
2023-04-08T16:23:01.379Z,96650.00
2023-04-08T16:25:33.993Z,96646.63
2023-04-08T16:28:06.679Z,96649.41
2023-04-08T16:30:42.885Z,96652.91
2023-04-08T16:33:16.075Z,96651.31
2023-04-08T16:35:50.565Z,96648.63
2023-04-08T16:38:24.131Z,96654.00
2023-04-08T16:40:58.659Z,96660.06
2023-04-08T16:43:31.404Z,96663.91
2023-04-08T16:46:10.482Z,96664.13
2023-04-08T16:48:44.305Z,96655.19
2023-04-08T16:51:18.810Z,96652.84
2023-04-08T16:53:51.690Z,96658.91
2023-04-08T16:56:24.893Z,96667.31
2023-04-08T16:58:57.813Z,96665.31
2023-04-08T17:01:30.591Z,96672.16
2023-04-08T17:04:03.440Z,96663.53
2023-04-08T17:06:37.762Z,96667.69
2023-04-08T17:09:10.487Z,96664.47
2023-04-08T17:11:43.130Z,96663.56
2023-04-08T17:14:16.153Z,96667.28
2023-04-08T17:16:48.932Z,96665.59
2023-04-08T17:19:21.726Z,96675.47
2023-04-08T17:21:55.837Z,96677.72
2023-04-08T17:24:28.604Z,96678.03
2023-04-08T17:27:01.274Z,96680.28
2023-04-08T17:29:34.063Z,96673.66
2023-04-08T17:32:06.803Z,96672.47
2023-04-08T17:34:39.504Z,96686.22
2023-04-08T17:37:13.532Z,96685.00
2023-04-08T17:39:46.520Z,96689.56
2023-04-08T17:42:22.476Z,96697.22
2023-04-08T17:44:56.106Z,96694.75
2023-04-08T17:47:28.771Z,96691.16
2023-04-08T17:50:01.448Z,96701.44
2023-04-08T17:52:35.704Z,96701.63
2023-04-08T17:55:08.792Z,96706.91
2023-04-08T17:57:41.908Z,96706.47
2023-04-08T18:00:14.748Z,96711.72
2023-04-08T18:02:48.921Z,96707.81
2023-04-08T18:05:22.951Z,96707.69
2023-04-08T18:07:58.286Z,96709.47
2023-04-08T18:10:31.003Z,96717.41
2023-04-08T18:15:39.674Z,96715.28
2023-04-08T18:18:12.337Z,96727.78
2023-04-08T18:20:45.011Z,96720.75
2023-04-08T18:23:19.032Z,96729.13
2023-04-08T18:25:51.690Z,96725.97
2023-04-08T18:28:24.323Z,96731.25
2023-04-08T18:30:57.110Z,96731.91
2023-04-08T18:33:29.826Z,96740.28
2023-04-08T18:36:06.871Z,96743.63
2023-04-08T18:38:41.847Z,96757.38
2023-04-08T18:41:14.504Z,96756.16
2023-04-08T18:43:47.128Z,96759.81
2023-04-08T18:46:20.019Z,96753.88
2023-04-08T18:48:52.849Z,96750.47
2023-04-08T18:51:25.658Z,96760.50
2023-04-08T18:53:59.754Z,96765.81
2023-04-08T18:56:34.210Z,96770.00
2023-04-08T18:59:06.874Z,96767.22
2023-04-08T19:01:40.193Z,96774.53
2023-04-08T19:04:13.141Z,96773.00
2023-04-08T19:06:46.058Z,96780.34
2023-04-08T19:09:20.309Z,96782.72
2023-04-08T19:11:52.984Z,96780.88
2023-04-08T19:14:25.820Z,96783.59
2023-04-08T19:16:58.996Z,96792.94
2023-04-08T19:19:31.685Z,96789.97
2023-04-08T19:22:06.018Z,96792.50
2023-04-08T19:24:40.290Z,96800.72
2023-04-08T19:27:13.983Z,96797.09
2023-04-08T19:29:46.678Z,96802.31
2023-04-08T19:32:19.552Z,96805.63
2023-04-08T19:34:52.280Z,96808.94
2023-04-08T19:37:26.027Z,96806.91
2023-04-08T19:40:00.150Z,96813.38
2023-04-08T19:42:33.217Z,96818.25
2023-04-08T19:45:06.995Z,96820.94
2023-04-08T19:47:42.399Z,96818.88
2023-04-08T19:50:15.157Z,96822.69
2023-04-08T19:52:47.860Z,96818.75
2023-04-08T19:55:22.143Z,96823.31
2023-04-08T19:57:55.684Z,96827.56
2023-04-08T20:00:29.162Z,96830.25
2023-04-08T20:03:02.223Z,96831.34
2023-04-08T20:05:35.103Z,96834.50
2023-04-08T20:08:07.844Z,96836.38
2023-04-08T20:10:42.460Z,96839.19
2023-04-08T20:13:16.293Z,96839.97
2023-04-08T20:15:50.013Z,96836.84
2023-04-08T20:18:22.936Z,96840.63
2023-04-08T20:20:56.666Z,96832.59
2023-04-08T20:23:29.762Z,96837.16
2023-04-08T20:26:04.016Z,96836.06
2023-04-08T20:28:36.861Z,96836.38
2023-04-08T20:31:10.566Z,96831.81
2023-04-08T20:33:45.567Z,96827.25
2023-04-08T20:36:18.299Z,96831.16
2023-04-08T20:38:51.111Z,96825.03
2023-04-08T20:41:26.017Z,96823.91
2023-04-08T20:43:58.719Z,96824.72
2023-04-08T20:46:31.396Z,96822.03
2023-04-08T20:49:04.361Z,96820.94
2023-04-08T20:51:37.065Z,96816.38
2023-04-08T20:54:10.426Z,96809.13
2023-04-08T20:56:44.496Z,96814.47
2023-04-08T20:59:17.124Z,96811.81
2023-04-08T21:01:49.869Z,96812.13
2023-04-08T21:04:24.417Z,96813.22
2023-04-08T21:06:57.076Z,96814.78
2023-04-08T21:09:30.032Z,96813.22
2023-04-08T21:12:04.404Z,96810.41
2023-04-08T21:14:37.100Z,96805.38
2023-04-08T21:17:09.726Z,96805.69
2023-04-08T21:19:42.689Z,96804.75
2023-04-08T21:22:16.796Z,96800.81
2023-04-08T21:24:49.490Z,96807.59
2023-04-08T21:27:23.537Z,96801.94
2023-04-08T21:29:56.232Z,96810.47
2023-04-08T21:32:30.389Z,96805.56
2023-04-08T21:35:03.404Z,96817.50
2023-04-08T21:37:36.690Z,96812.19
2023-04-08T21:40:10.173Z,96812.66
2023-04-08T21:42:44.483Z,96810.78
2023-04-08T21:45:17.121Z,96802.75
2023-04-08T21:47:50.678Z,96808.88
2023-04-08T21:50:23.371Z,96805.09
2023-04-08T21:52:55.984Z,96799.75
2023-04-08T21:55:29.636Z,96807.44
2023-04-08T21:58:03.732Z,96814.34
2023-04-08T22:00:36.420Z,96819.66
2023-04-08T22:03:09.241Z,96812.28
2023-04-08T22:05:42.254Z,96818.38
2023-04-08T22:08:14.874Z,96813.31
2023-04-08T22:10:47.962Z,96815.47
2023-04-08T22:13:22.072Z,96819.19
2023-04-08T22:15:54.774Z,96820.56
2023-04-08T22:18:27.433Z,96822.72
2023-04-08T22:21:00.161Z,96821.38
2023-04-08T22:23:32.845Z,96819.75
2023-04-08T22:26:05.705Z,96821.56
2023-04-08T22:28:39.790Z,96818.84
2023-04-08T22:31:12.795Z,96823.63
2023-04-08T22:33:46.177Z,96819.81
2023-04-08T22:36:18.996Z,96812.84
2023-04-08T22:38:51.817Z,96816.72
2023-04-08T22:41:25.048Z,96820.59
2023-04-08T22:43:59.070Z,96821.03
2023-04-08T22:46:31.879Z,96820.03
2023-04-08T22:49:05.003Z,96814.63
2023-04-08T22:51:38.331Z,96821.63
2023-04-08T22:54:11.251Z,96809.22
2023-04-08T22:56:43.908Z,96812.81
2023-04-08T22:59:18.124Z,96814.19
2023-04-08T23:01:51.168Z,96819.03
2023-04-08T23:04:24.043Z,96808.16
2023-04-08T23:06:56.877Z,96818.66
2023-04-08T23:09:29.570Z,96813.13
2023-04-08T23:12:02.607Z,96818.72
2023-04-08T23:14:36.610Z,96817.28
2023-04-08T23:17:09.267Z,96817.09
2023-04-08T23:19:42.444Z,96816.41
2023-04-08T23:22:15.214Z,96823.41
2023-04-08T23:24:48.348Z,96825.66
2023-04-08T23:27:21.083Z,96823.91
2023-04-08T23:29:55.263Z,96825.69
2023-04-08T23:32:28.279Z,96826.88
2023-04-08T23:35:01.096Z,96833.34
2023-04-08T23:37:33.826Z,96834.03
2023-04-08T23:40:07.343Z,96842.09
2023-04-08T23:42:40.372Z,96829.97
2023-04-08T23:45:14.411Z,96829.75
2023-04-08T23:47:47.478Z,96821.59
2023-04-08T23:50:23.094Z,96827.97
2023-04-08T23:52:55.817Z,96832.22
2023-04-08T23:55:28.452Z,96827.97
2023-04-08T23:58:01.167Z,96826.91
